Time;durP1;ratioP1;P1;durP2;ratioP2;P2;SDS_P1;SDS_P2;PMS_P1;PMS_P2;Temp;Humidity;BMP_temperature;BMP_pressure;BME280_temperature;BME280_humidity;BME280_pressure;Samples;Min_cycle;Max_cycle;Signal;HPM_P1;HPM_P2
2022/07/06 00:01:54;;;;;;;0.45;0.30;;;;;;;;;;1843597;76;26753;-44
2022/07/06 00:04:21;;;;;;;0.50;0.50;;;;;;;;;;1847395;76;26242;-42
2022/07/06 00:06:49;;;;;;;0.55;0.50;;;;;;;;;;1841602;77;26263;-44
2022/07/06 00:09:16;;;;;;;1.98;0.57;;;;;;;;;;1789946;79;26311;-43
2022/07/06 00:11:43;;;;;;;2.72;0.53;;;;;;;;;;1814081;77;26244;-41
2022/07/06 00:14:11;;;;;;;1.72;0.60;;;;;;;;;;1816288;78;26299;-49
2022/07/06 00:16:38;;;;;;;0.82;0.60;;;;;;;;;;1793333;79;26762;-49
2022/07/06 00:19:05;;;;;;;1.05;0.45;;;;;;;;;;1808445;78;26861;-43
2022/07/06 00:21:32;;;;;;;1.65;0.57;;;;;;;;;;1809479;77;26709;-49
2022/07/06 00:24:00;;;;;;;0.55;0.53;;;;;;;;;;1812681;77;26385;-50
2022/07/06 00:26:27;;;;;;;1.20;0.55;;;;;;;;;;1800579;79;26361;-44
2022/07/06 00:28:55;;;;;;;0.62;0.50;;;;;;;;;;1792875;79;26291;-44
2022/07/06 00:31:22;;;;;;;1.15;0.70;;;;;;;;;;1843029;76;26583;-44
2022/07/06 00:33:49;;;;;;;1.45;0.50;;;;;;;;;;1850002;76;26389;-51
2022/07/06 00:36:17;;;;;;;2.85;0.70;;;;;;;;;;1850626;77;26243;-48
2022/07/06 00:38:44;;;;;;;0.50;0.50;;;;;;;;;;1844465;77;26711;-43
2022/07/06 00:41:13;;;;;;;0.90;0.57;;;;;;;;;;1846356;76;26249;-55
2022/07/06 00:43:50;;;;;;;0.65;0.40;;;;;;;;;;1859320;75;26260;-43
2022/07/06 00:46:17;;;;;;;0.30;0.30;;;;;;;;;;1854308;77;27309;-41
2022/07/06 00:48:44;;;;;;;0.85;0.42;;;;;;;;;;1862645;75;26246;-51
2022/07/06 00:51:12;;;;;;;0.90;0.40;;;;;;;;;;1839113;75;26249;-42
2022/07/06 00:53:40;;;;;;;0.75;0.53;;;;;;;;;;1839182;77;26255;-44
2022/07/06 00:56:08;;;;;;;1.15;0.55;;;;;;;;;;1859945;77;26216;-41
2022/07/06 00:58:36;;;;;;;1.20;0.62;;;;;;;;;;1858014;75;26249;-42
2022/07/06 01:01:03;;;;;;;0.60;0.60;;;;;;;;;;1855726;75;26700;-41
2022/07/06 01:03:30;;;;;;;0.75;0.50;;;;;;;;;;1860560;75;26825;-47
2022/07/06 01:05:57;;;;;;;0.50;0.50;;;;;;;;;;1859407;76;26798;-47
2022/07/06 01:08:25;;;;;;;1.27;0.60;;;;;;;;;;1847491;76;26260;-48
2022/07/06 01:10:52;;;;;;;1.25;0.40;;;;;;;;;;1848664;77;26330;-43
2022/07/06 01:13:20;;;;;;;0.30;0.28;;;;;;;;;;1861450;75;26535;-43
2022/07/06 01:15:47;;;;;;;1.22;0.50;;;;;;;;;;1859466;76;26288;-43
2022/07/06 01:18:14;;;;;;;0.50;0.50;;;;;;;;;;1851805;75;26789;-41
2022/07/06 01:20:41;;;;;;;0.72;0.47;;;;;;;;;;1843467;76;26324;-41
2022/07/06 01:23:09;;;;;;;2.52;0.53;;;;;;;;;;1859002;75;26342;-49
2022/07/06 01:25:36;;;;;;;0.40;0.40;;;;;;;;;;1861204;75;26335;-44
2022/07/06 01:28:03;;;;;;;0.85;0.50;;;;;;;;;;1852136;77;26231;-46
2022/07/06 01:30:31;;;;;;;0.60;0.40;;;;;;;;;;1856534;76;26306;-42
2022/07/06 01:32:58;;;;;;;1.02;0.65;;;;;;;;;;1863265;77;26715;-49
2022/07/06 01:35:27;;;;;;;0.62;0.60;;;;;;;;;;1847740;76;26243;-44
2022/07/06 01:37:54;;;;;;;1.07;0.60;;;;;;;;;;1849408;75;26555;-43
2022/07/06 01:40:21;;;;;;;0.60;0.60;;;;;;;;;;1851671;77;26322;-41
2022/07/06 01:42:48;;;;;;;0.50;0.50;;;;;;;;;;1861170;75;26339;-47
2022/07/06 01:45:16;;;;;;;0.62;0.55;;;;;;;;;;1857309;76;26256;-40
2022/07/06 01:47:43;;;;;;;0.85;0.70;;;;;;;;;;1848199;75;26821;-44
2022/07/06 01:50:10;;;;;;;0.80;0.70;;;;;;;;;;1856586;76;26714;-47
2022/07/06 01:52:38;;;;;;;0.90;0.60;;;;;;;;;;1844469;76;26682;-46
2022/07/06 01:55:06;;;;;;;0.60;0.60;;;;;;;;;;1834200;77;26267;-40
2022/07/06 01:57:33;;;;;;;0.75;0.75;;;;;;;;;;1854799;75;26241;-41
2022/07/06 02:00:00;;;;;;;0.98;0.90;;;;;;;;;;1854734;76;26236;-44
2022/07/06 02:02:28;;;;;;;1.20;0.88;;;;;;;;;;1856110;76;26288;-41
2022/07/06 02:04:55;;;;;;;0.93;0.90;;;;;;;;;;1858239;76;27318;-43
2022/07/06 02:07:22;;;;;;;0.90;0.90;;;;;;;;;;1855882;75;26495;-50
2022/07/06 02:09:50;;;;;;;2.30;1.00;;;;;;;;;;1848326;77;26365;-44
2022/07/06 02:12:17;;;;;;;1.35;0.98;;;;;;;;;;1863322;76;26284;-41
2022/07/06 02:14:44;;;;;;;2.50;1.00;;;;;;;;;;1860115;76;26260;-44
2022/07/06 02:17:11;;;;;;;2.17;1.10;;;;;;;;;;1862236;75;26284;-41
2022/07/06 02:19:39;;;;;;;1.95;1.20;;;;;;;;;;1862874;77;26264;-45
2022/07/06 02:22:06;;;;;;;3.37;1.10;;;;;;;;;;1845138;75;26789;-44
2022/07/06 02:24:33;;;;;;;1.10;1.00;;;;;;;;;;1848225;76;26286;-43
2022/07/06 02:27:00;;;;;;;1.20;1.10;;;;;;;;;;1856194;76;26242;-49
2022/07/06 02:29:28;;;;;;;1.87;1.15;;;;;;;;;;1854976;77;26236;-41
2022/07/06 02:31:55;;;;;;;1.27;1.10;;;;;;;;;;1862798;75;26257;-43
2022/07/06 02:34:22;;;;;;;3.08;1.10;;;;;;;;;;1863270;75;26271;-44
2022/07/06 02:36:50;;;;;;;1.75;1.37;;;;;;;;;;1842263;76;26851;-48
2022/07/06 02:39:17;;;;;;;2.77;1.22;;;;;;;;;;1847661;76;26862;-45
2022/07/06 02:41:44;;;;;;;1.30;1.20;;;;;;;;;;1847520;76;26799;-44
2022/07/06 02:44:11;;;;;;;1.20;1.00;;;;;;;;;;1842732;76;26252;-43
2022/07/06 02:46:39;;;;;;;1.37;1.27;;;;;;;;;;1843716;76;26248;-46
2022/07/06 02:49:06;;;;;;;2.60;1.52;;;;;;;;;;1857712;76;26304;-41
2022/07/06 02:51:33;;;;;;;1.10;1.00;;;;;;;;;;1842839;77;26312;-41
2022/07/06 02:54:00;;;;;;;1.90;1.30;;;;;;;;;;1836646;77;26245;-43
2022/07/06 02:56:28;;;;;;;2.00;1.20;;;;;;;;;;1830998;76;26299;-48
2022/07/06 02:58:55;;;;;;;1.40;1.30;;;;;;;;;;1846693;76;26677;-48
2022/07/06 03:01:22;;;;;;;1.17;1.12;;;;;;;;;;1829485;76;26295;-48
2022/07/06 03:03:50;;;;;;;2.17;1.07;;;;;;;;;;1837325;76;26322;-44
2022/07/06 03:06:17;;;;;;;1.95;1.10;;;;;;;;;;1841066;76;26326;-43
2022/07/06 03:08:44;;;;;;;3.58;1.20;;;;;;;;;;1834698;76;26257;-41
2022/07/06 03:11:11;;;;;;;1.27;1.15;;;;;;;;;;1847962;77;26313;-41
2022/07/06 03:13:39;;;;;;;1.15;1.02;;;;;;;;;;1846102;76;26198;-50
2022/07/06 03:16:06;;;;;;;2.02;1.00;;;;;;;;;;1840199;77;26327;-46
2022/07/06 03:18:33;;;;;;;1.32;0.98;;;;;;;;;;1828515;76;26253;-46
2022/07/06 03:21:03;;;;;;;1.32;1.00;;;;;;;;;;1845733;76;26285;-43
2022/07/06 03:23:30;;;;;;;2.40;1.00;;;;;;;;;;1847047;76;26261;-52
2022/07/06 03:25:57;;;;;;;2.37;1.10;;;;;;;;;;1838177;77;26277;-49
2022/07/06 03:28:25;;;;;;;2.90;1.20;;;;;;;;;;1834468;76;26717;-45
2022/07/06 03:30:52;;;;;;;2.67;1.12;;;;;;;;;;1833566;76;26241;-46
2022/07/06 03:33:19;;;;;;;1.15;0.80;;;;;;;;;;1859172;76;26288;-45
2022/07/06 03:35:47;;;;;;;2.15;1.12;;;;;;;;;;1854254;76;26324;-47
2022/07/06 03:38:14;;;;;;;0.95;0.90;;;;;;;;;;1857592;75;26242;-42
2022/07/06 03:40:41;;;;;;;1.32;0.90;;;;;;;;;;1850188;75;26260;-42
2022/07/06 03:43:09;;;;;;;0.75;0.75;;;;;;;;;;1854791;76;26735;-40
2022/07/06 03:45:36;;;;;;;1.87;0.90;;;;;;;;;;1862748;75;26298;-50
2022/07/06 03:48:03;;;;;;;1.50;0.90;;;;;;;;;;1848451;75;26331;-48
2022/07/06 03:50:30;;;;;;;2.40;0.80;;;;;;;;;;1856755;76;26807;-44
2022/07/06 03:52:58;;;;;;;1.05;0.80;;;;;;;;;;1859974;75;26343;-49
2022/07/06 03:55:25;;;;;;;2.47;0.82;;;;;;;;;;1861134;76;26311;-41
2022/07/06 03:57:52;;;;;;;1.90;0.90;;;;;;;;;;1877531;75;26198;-46
2022/07/06 04:00:20;;;;;;;2.55;0.80;;;;;;;;;;1859478;75;26335;-50
2022/07/06 04:02:47;;;;;;;2.47;0.95;;;;;;;;;;1862395;76;26326;-51
2022/07/06 04:05:15;;;;;;;0.72;0.72;;;;;;;;;;1858903;77;26256;-41
2022/07/06 04:07:42;;;;;;;0.75;0.75;;;;;;;;;;1851165;75;26291;-48
2022/07/06 04:10:10;;;;;;;1.37;1.10;;;;;;;;;;1858519;76;26277;-45
2022/07/06 04:12:41;;;;;;;1.67;0.70;;;;;;;;;;1862279;75;26739;-48
2022/07/06 04:15:09;;;;;;;2.37;0.80;;;;;;;;;;1855405;76;26813;-48
2022/07/06 04:17:55;;;;;;;1.42;0.88;;;;;;;;;;1859700;76;26671;-44
2022/07/06 04:20:24;;;;;;;1.05;0.75;;;;;;;;;;1859201;76;26277;-44
2022/07/06 04:22:51;;;;;;;1.70;0.70;;;;;;;;;;1860434;76;26307;-52
2022/07/06 04:25:19;;;;;;;1.42;1.00;;;;;;;;;;1855459;75;26249;-46
2022/07/06 04:27:46;;;;;;;0.93;0.80;;;;;;;;;;1867715;75;26326;-41
2022/07/06 04:30:13;;;;;;;2.30;0.80;;;;;;;;;;1859887;77;26781;-49
2022/07/06 04:32:41;;;;;;;2.80;0.80;;;;;;;;;;1862723;75;26241;-44
2022/07/06 04:35:08;;;;;;;4.65;0.80;;;;;;;;;;1861948;75;26221;-44
2022/07/06 04:37:36;;;;;;;3.37;0.80;;;;;;;;;;1848553;75;26295;-45
2022/07/06 04:40:03;;;;;;;2.05;0.90;;;;;;;;;;1854428;77;26314;-49
2022/07/06 04:42:30;;;;;;;2.75;0.80;;;;;;;;;;1855459;76;26311;-51
2022/07/06 04:44:58;;;;;;;1.82;0.78;;;;;;;;;;1853996;75;26320;-43
2022/07/06 04:47:25;;;;;;;2.50;0.88;;;;;;;;;;1862873;75;26218;-43
2022/07/06 04:49:52;;;;;;;1.67;0.80;;;;;;;;;;1863567;76;26291;-43
2022/07/06 04:52:19;;;;;;;3.92;0.85;;;;;;;;;;1797642;78;26852;-49
2022/07/06 04:54:47;;;;;;;0.88;0.80;;;;;;;;;;1799873;78;26906;-42
2022/07/06 04:57:14;;;;;;;2.05;0.60;;;;;;;;;;1810261;79;26834;-43
2022/07/06 04:59:41;;;;;;;3.72;0.80;;;;;;;;;;1809363;78;26743;-49
2022/07/06 05:02:08;;;;;;;0.80;0.80;;;;;;;;;;1805744;78;26762;-46
2022/07/06 05:04:36;;;;;;;1.65;0.72;;;;;;;;;;1805225;79;26287;-46
2022/07/06 05:07:03;;;;;;;1.05;0.78;;;;;;;;;;1797450;79;26307;-44
2022/07/06 05:09:31;;;;;;;0.80;0.80;;;;;;;;;;1811328;79;26342;-54
2022/07/06 05:11:58;;;;;;;0.85;0.72;;;;;;;;;;1809811;79;26327;-43
2022/07/06 05:14:26;;;;;;;1.55;0.85;;;;;;;;;;1807348;78;26224;-48
2022/07/06 05:16:53;;;;;;;0.75;0.70;;;;;;;;;;1804781;79;26358;-46
2022/07/06 05:19:20;;;;;;;0.88;0.80;;;;;;;;;;1804250;79;26354;-48
2022/07/06 05:21:47;;;;;;;0.80;0.80;;;;;;;;;;1811140;78;26952;-51
2022/07/06 05:24:19;;;;;;;0.80;0.80;;;;;;;;;;1806612;79;26276;-56
2022/07/06 05:26:44;;;;;;;1.42;0.82;;;;;;;;;;1828206;77;26754;-42
2022/07/06 05:29:11;;;;;;;4.10;0.90;;;;;;;;;;1828652;78;26754;-42
2022/07/06 05:31:38;;;;;;;1.30;0.88;;;;;;;;;;1826666;77;26291;-43
2022/07/06 05:34:06;;;;;;;2.92;1.00;;;;;;;;;;1825321;77;26276;-42
2022/07/06 05:36:33;;;;;;;1.07;0.98;;;;;;;;;;1825331;77;26323;-51
2022/07/06 05:39:00;;;;;;;2.58;0.82;;;;;;;;;;1806109;79;26763;-42
2022/07/06 05:41:28;;;;;;;1.20;1.10;;;;;;;;;;1774438;80;26639;-42
2022/07/06 05:43:55;;;;;;;2.98;0.80;;;;;;;;;;1815025;79;26525;-45
2022/07/06 05:46:22;;;;;;;1.02;0.72;;;;;;;;;;1804372;77;26327;-44
2022/07/06 05:51:35;;;;;;;1.45;0.90;;;;;;;;;;1784704;80;27475;-51
2022/07/06 05:54:02;;;;;;;1.80;1.00;;;;;;;;;;1792643;80;26363;-47
2022/07/06 05:56:29;;;;;;;1.17;0.80;;;;;;;;;;1775979;80;26286;-42
2022/07/06 05:58:57;;;;;;;1.40;0.93;;;;;;;;;;1799696;79;26319;-45
2022/07/06 06:01:24;;;;;;;1.77;0.90;;;;;;;;;;1774701;80;26292;-46
2022/07/06 06:03:51;;;;;;;4.47;1.02;;;;;;;;;;1775859;80;26831;-47
2022/07/06 06:06:19;;;;;;;1.07;0.90;;;;;;;;;;1788741;78;26288;-49
2022/07/06 06:08:46;;;;;;;0.85;0.80;;;;;;;;;;1805558;77;26267;-49
2022/07/06 06:11:13;;;;;;;2.22;1.10;;;;;;;;;;1821623;77;26271;-43
2022/07/06 06:13:41;;;;;;;1.25;0.80;;;;;;;;;;1794343;79;26376;-43
2022/07/06 06:16:08;;;;;;;1.22;0.88;;;;;;;;;;1809302;77;26273;-43
2022/07/06 06:18:35;;;;;;;2.20;0.90;;;;;;;;;;1817417;77;26272;-48
2022/07/06 06:21:02;;;;;;;4.08;0.90;;;;;;;;;;1814964;77;26789;-44
2022/07/06 06:23:30;;;;;;;2.22;0.80;;;;;;;;;;1788977;78;26557;-43
2022/07/06 06:25:57;;;;;;;1.30;0.93;;;;;;;;;;1788769;80;26574;-47
2022/07/06 06:28:24;;;;;;;0.85;0.70;;;;;;;;;;1833482;77;26240;-44
2022/07/06 06:30:51;;;;;;;2.65;0.80;;;;;;;;;;1800634;77;26409;-59
2022/07/06 06:33:20;;;;;;;1.17;0.80;;;;;;;;;;1815586;78;26253;-46
2022/07/06 06:35:49;;;;;;;0.70;0.70;;;;;;;;;;1790148;79;26405;-48
2022/07/06 06:38:17;;;;;;;1.00;0.90;;;;;;;;;;1796362;78;26300;-48
2022/07/06 06:40:45;;;;;;;1.77;0.80;;;;;;;;;;1789884;79;26731;-42
2022/07/06 06:43:12;;;;;;;0.90;0.82;;;;;;;;;;1799015;79;26277;-44
2022/07/06 06:45:40;;;;;;;1.42;0.95;;;;;;;;;;1791087;78;26266;-47
2022/07/06 06:48:07;;;;;;;1.55;0.80;;;;;;;;;;1801120;78;26304;-49
2022/07/06 06:50:35;;;;;;;0.88;0.80;;;;;;;;;;1814962;78;26308;-46
2022/07/06 06:53:03;;;;;;;1.02;0.75;;;;;;;;;;1786948;78;26374;-46
2022/07/06 06:55:30;;;;;;;1.57;0.80;;;;;;;;;;1793763;79;26326;-44
2022/07/06 06:57:57;;;;;;;1.10;0.90;;;;;;;;;;1802124;79;26283;-50
2022/07/06 07:00:25;;;;;;;1.90;1.10;;;;;;;;;;1790499;78;26267;-42
2022/07/06 07:02:52;;;;;;;1.67;1.05;;;;;;;;;;1798772;79;26345;-42
2022/07/06 07:05:19;;;;;;;2.40;0.72;;;;;;;;;;1808315;78;26326;-43
2022/07/06 07:07:46;;;;;;;0.70;0.70;;;;;;;;;;1790678;78;26275;-51
2022/07/06 07:10:14;;;;;;;0.95;0.80;;;;;;;;;;1792970;78;26291;-51
2022/07/06 07:12:45;;;;;;;1.45;0.62;;;;;;;;;;1803725;79;26351;-53
2022/07/06 07:15:13;;;;;;;0.50;0.50;;;;;;;;;;1793780;79;26720;-43
2022/07/06 07:17:41;;;;;;;2.33;0.70;;;;;;;;;;1803733;78;26297;-45
2022/07/06 07:20:09;;;;;;;1.10;0.90;;;;;;;;;;1788756;78;26333;-44
2022/07/06 07:22:36;;;;;;;0.80;0.80;;;;;;;;;;1801589;79;25710;-44
2022/07/06 07:25:04;;;;;;;0.95;0.90;;;;;;;;;;1821978;78;26281;-42
2022/07/06 07:27:32;;;;;;;0.60;0.50;;;;;;;;;;1816197;77;26357;-53
2022/07/06 07:29:59;;;;;;;0.82;0.70;;;;;;;;;;1814185;77;26825;-47
2022/07/06 07:32:27;;;;;;;0.72;0.70;;;;;;;;;;1821664;77;26711;-42
2022/07/06 07:34:54;;;;;;;0.80;0.80;;;;;;;;;;1828914;77;26307;-46
2022/07/06 07:37:21;;;;;;;0.68;0.65;;;;;;;;;;1815997;77;26804;-43
2022/07/06 07:39:48;;;;;;;1.10;0.60;;;;;;;;;;1801363;77;26280;-50
2022/07/06 07:42:16;;;;;;;0.70;0.70;;;;;;;;;;1814412;77;26272;-46
2022/07/06 07:44:43;;;;;;;1.62;0.70;;;;;;;;;;1790963;77;26397;-43
2022/07/06 07:47:10;;;;;;;1.37;0.80;;;;;;;;;;1845346;76;26210;-43
2022/07/06 07:49:37;;;;;;;0.78;0.78;;;;;;;;;;1849047;76;26278;-47
2022/07/06 07:52:05;;;;;;;0.98;0.80;;;;;;;;;;1842010;77;26307;-43
2022/07/06 07:54:32;;;;;;;0.93;0.60;;;;;;;;;;1837082;76;27466;-50
2022/07/06 07:56:59;;;;;;;1.45;0.72;;;;;;;;;;1852760;76;26223;-51
2022/07/06 07:59:27;;;;;;;1.10;0.65;;;;;;;;;;1837350;77;26300;-46
2022/07/06 08:01:54;;;;;;;0.55;0.55;;;;;;;;;;1844081;76;26919;-48
2022/07/06 08:04:21;;;;;;;5.97;0.90;;;;;;;;;;1847665;76;26269;-42
2022/07/06 08:06:49;;;;;;;1.65;0.80;;;;;;;;;;1843227;76;26341;-42
2022/07/06 08:09:17;;;;;;;1.45;0.80;;;;;;;;;;1840469;76;26242;-42
2022/07/06 08:11:45;;;;;;;0.90;0.70;;;;;;;;;;1844947;77;26291;-42
2022/07/06 08:14:14;;;;;;;1.10;0.88;;;;;;;;;;1844271;76;26267;-42
2022/07/06 08:16:41;;;;;;;0.70;0.70;;;;;;;;;;1837336;76;26316;-44
2022/07/06 08:19:09;;;;;;;0.72;0.70;;;;;;;;;;1848691;76;26382;-48
2022/07/06 08:21:36;;;;;;;1.17;0.60;;;;;;;;;;1853028;76;26261;-45
2022/07/06 08:24:03;;;;;;;2.02;0.80;;;;;;;;;;1850974;76;26238;-42
2022/07/06 08:26:31;;;;;;;1.05;1.00;;;;;;;;;;1848800;76;26250;-42
2022/07/06 08:28:58;;;;;;;2.95;1.00;;;;;;;;;;1860500;76;26304;-45
2022/07/06 08:31:32;;;;;;;2.05;1.00;;;;;;;;;;1841593;76;26261;-42
2022/07/06 08:33:56;;;;;;;6.87;1.25;;;;;;;;;;1851505;76;26405;-52
2022/07/06 08:36:26;;;;;;;2.60;1.22;;;;;;;;;;1850512;76;26319;-53
2022/07/06 08:38:54;;;;;;;4.15;1.47;;;;;;;;;;1840791;76;26671;-41
2022/07/06 08:41:23;;;;;;;6.87;1.50;;;;;;;;;;1852609;76;26646;-41
2022/07/06 08:43:51;;;;;;;4.42;1.72;;;;;;;;;;1852317;76;26390;-43
2022/07/06 08:46:19;;;;;;;8.68;1.65;;;;;;;;;;1843884;76;26225;-54
2022/07/06 08:48:46;;;;;;;4.85;1.27;;;;;;;;;;1849292;76;26571;-41
2022/07/06 08:51:14;;;;;;;7.40;1.40;;;;;;;;;;1847699;76;26273;-41
2022/07/06 08:53:48;;;;;;;4.40;1.40;;;;;;;;;;1844826;77;26266;-47
2022/07/06 08:56:15;;;;;;;4.05;1.40;;;;;;;;;;1845173;76;26259;-40
2022/07/06 08:58:42;;;;;;;13.93;1.50;;;;;;;;;;1846574;76;26797;-45
2022/07/06 09:01:13;;;;;;;6.75;1.40;;;;;;;;;;1845309;77;26798;-43
2022/07/06 09:03:41;;;;;;;8.35;1.67;;;;;;;;;;1838067;76;26281;-48
2022/07/06 09:06:09;;;;;;;4.90;1.27;;;;;;;;;;1827886;77;26723;-41
2022/07/06 09:08:36;;;;;;;4.92;1.30;;;;;;;;;;1845400;76;26300;-45
2022/07/06 09:11:04;;;;;;;10.13;1.20;;;;;;;;;;1850766;76;26238;-45
2022/07/06 09:13:31;;;;;;;4.42;1.02;;;;;;;;;;1855502;76;26875;-41
2022/07/06 09:16:16;;;;;;;2.95;1.00;;;;;;;;;;1844741;76;26253;-41
2022/07/06 09:18:47;;;;;;;3.22;1.12;;;;;;;;;;1841646;77;26291;-41
2022/07/06 09:21:21;;;;;;;2.52;0.80;;;;;;;;;;1850313;76;26245;-38
2022/07/06 09:23:50;;;;;;;2.65;0.88;;;;;;;;;;1845641;76;26309;-42
2022/07/06 09:26:17;;;;;;;2.10;0.90;;;;;;;;;;1847198;76;26273;-43
2022/07/06 09:28:45;;;;;;;1.87;0.80;;;;;;;;;;1843017;76;26275;-41
2022/07/06 09:31:13;;;;;;;5.78;0.90;;;;;;;;;;1847547;77;26246;-42
2022/07/06 09:33:41;;;;;;;1.62;0.80;;;;;;;;;;1843793;76;26296;-42
2022/07/06 09:36:09;;;;;;;3.15;0.90;;;;;;;;;;1846704;76;26258;-42
2022/07/06 09:38:36;;;;;;;1.22;0.95;;;;;;;;;;1853138;77;26355;-41
2022/07/06 09:41:03;;;;;;;2.75;0.70;;;;;;;;;;1862624;75;26241;-42
2022/07/06 09:43:33;;;;;;;2.98;0.80;;;;;;;;;;1856701;77;26752;-41
2022/07/06 09:45:59;;;;;;;1.85;1.10;;;;;;;;;;1852977;75;26261;-45
2022/07/06 09:48:28;;;;;;;5.25;0.88;;;;;;;;;;1855212;76;26365;-45
2022/07/06 09:50:57;;;;;;;2.08;0.90;;;;;;;;;;1853553;77;26272;-46
2022/07/06 09:53:25;;;;;;;2.25;0.88;;;;;;;;;;1857079;76;26308;-40
2022/07/06 09:55:53;;;;;;;1.20;0.60;;;;;;;;;;1858090;76;26386;-43
2022/07/06 09:58:21;;;;;;;2.58;0.60;;;;;;;;;;1852309;75;26304;-41
2022/07/06 10:00:49;;;;;;;0.70;0.70;;;;;;;;;;1861925;75;26330;-42
2022/07/06 10:03:17;;;;;;;2.02;0.93;;;;;;;;;;1856556;75;26324;-48
2022/07/06 10:05:49;;;;;;;0.85;0.70;;;;;;;;;;1854926;75;26350;-43
2022/07/06 10:08:17;;;;;;;2.70;0.82;;;;;;;;;;1849800;75;26267;-43
2022/07/06 10:10:45;;;;;;;1.35;0.85;;;;;;;;;;1855633;77;26787;-44
2022/07/06 10:13:12;;;;;;;1.92;0.70;;;;;;;;;;1864262;76;26291;-43
2022/07/06 10:15:40;;;;;;;2.02;0.70;;;;;;;;;;1860823;75;26264;-44
2022/07/06 10:18:09;;;;;;;0.95;0.70;;;;;;;;;;1866828;75;26813;-42
2022/07/06 10:20:38;;;;;;;0.68;0.68;;;;;;;;;;1868967;75;26756;-43
2022/07/06 10:23:06;;;;;;;0.70;0.70;;;;;;;;;;1854769;75;27654;-41
2022/07/06 10:25:34;;;;;;;1.05;0.70;;;;;;;;;;1861864;75;26272;-49
2022/07/06 10:28:02;;;;;;;0.60;0.60;;;;;;;;;;1867471;75;26728;-45
2022/07/06 10:30:30;;;;;;;2.55;0.68;;;;;;;;;;1845805;77;26719;-41
2022/07/06 10:32:59;;;;;;;0.70;0.70;;;;;;;;;;1866156;75;26256;-53
2022/07/06 10:35:26;;;;;;;0.57;0.55;;;;;;;;;;1862207;75;26265;-44
2022/07/06 10:38:07;;;;;;;1.57;0.80;;;;;;;;;;1842193;75;26193;-40
2022/07/06 10:43:36;;;;;;;0.85;0.70;;;;;;;;;;1849901;76;26302;-45
2022/07/06 10:46:08;;;;;;;0.93;0.62;;;;;;;;;;1842331;76;26316;-45
2022/07/06 10:48:36;;;;;;;0.47;0.47;;;;;;;;;;1845709;76;26510;-44
2022/07/06 10:51:05;;;;;;;0.65;0.60;;;;;;;;;;1838644;76;26814;-49
2022/07/06 10:53:34;;;;;;;1.05;0.60;;;;;;;;;;1839742;77;26721;-41
2022/07/06 10:56:03;;;;;;;0.62;0.60;;;;;;;;;;1846763;76;26929;-48
2022/07/06 10:58:37;;;;;;;0.82;0.80;;;;;;;;;;1840990;76;26649;-46
2022/07/06 11:01:06;;;;;;;0.88;0.60;;;;;;;;;;1828956;77;26227;-41
2022/07/06 11:03:37;;;;;;;1.27;0.68;;;;;;;;;;1839403;76;26370;-41
2022/07/06 11:06:21;;;;;;;0.72;0.60;;;;;;;;;;1842862;76;26250;-55
2022/07/06 11:08:55;;;;;;;0.57;0.50;;;;;;;;;;1835045;76;26633;-41
2022/07/06 11:11:24;;;;;;;1.95;0.60;;;;;;;;;;1842115;77;26264;-45
2022/07/06 11:13:53;;;;;;;0.65;0.65;;;;;;;;;;1857460;76;26254;-43
2022/07/06 11:16:21;;;;;;;1.20;0.60;;;;;;;;;;1847341;76;26278;-51
2022/07/06 11:18:50;;;;;;;1.00;0.68;;;;;;;;;;1865618;76;26183;-40
2022/07/06 11:21:18;;;;;;;0.60;0.60;;;;;;;;;;1844131;76;26343;-41
2022/07/06 11:23:49;;;;;;;0.50;0.50;;;;;;;;;;1846234;77;27351;-41
2022/07/06 11:26:17;;;;;;;0.82;0.82;;;;;;;;;;1849331;76;26323;-44
2022/07/06 11:28:47;;;;;;;0.50;0.50;;;;;;;;;;1830825;76;26256;-43
2022/07/06 11:31:15;;;;;;;0.62;0.62;;;;;;;;;;1848336;77;26270;-42
2022/07/06 11:33:44;;;;;;;0.68;0.68;;;;;;;;;;1838941;76;26258;-44
2022/07/06 11:36:15;;;;;;;0.57;0.57;;;;;;;;;;1856363;76;26261;-40
2022/07/06 11:38:43;;;;;;;0.90;0.82;;;;;;;;;;1858806;76;26355;-41
2022/07/06 11:41:11;;;;;;;0.50;0.50;;;;;;;;;;1850679;76;26309;-39
2022/07/06 11:43:42;;;;;;;1.25;0.50;;;;;;;;;;1861771;76;26297;-43
2022/07/06 11:46:08;;;;;;;0.65;0.60;;;;;;;;;;1823717;76;26289;-39
2022/07/06 11:48:35;;;;;;;0.50;0.50;;;;;;;;;;1861165;76;26233;-44
2022/07/06 11:51:03;;;;;;;1.05;0.70;;;;;;;;;;1852362;76;26732;-41
2022/07/06 11:53:30;;;;;;;0.82;0.53;;;;;;;;;;1854180;76;26343;-40
2022/07/06 11:55:59;;;;;;;0.40;0.40;;;;;;;;;;1846028;76;26229;-43
2022/07/06 11:58:27;;;;;;;0.65;0.60;;;;;;;;;;1850543;76;26307;-40
2022/07/06 12:01:04;;;;;;;0.93;0.60;;;;;;;;;;1857711;76;26821;-43
2022/07/06 12:03:32;;;;;;;0.82;0.53;;;;;;;;;;1837430;76;26238;-45
2022/07/06 12:05:59;;;;;;;0.55;0.55;;;;;;;;;;1847511;76;26798;-44
2022/07/06 12:08:27;;;;;;;0.40;0.40;;;;;;;;;;1835015;76;26724;-42
2022/07/06 12:10:55;;;;;;;0.57;0.57;;;;;;;;;;1833567;77;26275;-48
2022/07/06 12:13:22;;;;;;;0.60;0.60;;;;;;;;;;1793368;79;26288;-41
2022/07/06 12:15:49;;;;;;;0.60;0.60;;;;;;;;;;1803120;77;25422;-39
2022/07/06 12:18:17;;;;;;;0.57;0.57;;;;;;;;;;1813451;79;26634;-40
2022/07/06 12:20:44;;;;;;;0.62;0.40;;;;;;;;;;1833978;76;26274;-46
2022/07/06 12:23:12;;;;;;;0.50;0.50;;;;;;;;;;1858405;76;26281;-46
2022/07/06 12:25:39;;;;;;;0.60;0.60;;;;;;;;;;1848039;77;26278;-44
2022/07/06 12:28:07;;;;;;;0.50;0.50;;;;;;;;;;1842216;76;26774;-40
2022/07/06 12:30:36;;;;;;;1.75;0.50;;;;;;;;;;1849473;76;26210;-45
2022/07/06 12:33:17;;;;;;;0.50;0.50;;;;;;;;;;1856305;76;26316;-40
2022/07/06 12:35:45;;;;;;;0.40;0.40;;;;;;;;;;1845733;76;27200;-43
2022/07/06 12:38:12;;;;;;;0.40;0.40;;;;;;;;;;1841351;76;26221;-40
2022/07/06 12:40:40;;;;;;;0.55;0.50;;;;;;;;;;1839304;77;26293;-45
2022/07/06 12:43:07;;;;;;;0.60;0.60;;;;;;;;;;1848026;77;26209;-47
2022/07/06 12:45:34;;;;;;;0.42;0.40;;;;;;;;;;1850120;76;26202;-50
2022/07/06 12:48:02;;;;;;;0.57;0.47;;;;;;;;;;1858218;76;26312;-39
2022/07/06 12:50:34;;;;;;;0.70;0.33;;;;;;;;;;1853756;76;26368;-46
2022/07/06 12:53:02;;;;;;;0.42;0.42;;;;;;;;;;1850416;76;26656;-45
2022/07/06 12:55:29;;;;;;;0.35;0.30;;;;;;;;;;1850061;76;26253;-47
2022/07/06 12:57:57;;;;;;;0.40;0.40;;;;;;;;;;1847911;77;26898;-41
2022/07/06 13:00:25;;;;;;;0.50;0.50;;;;;;;;;;1844133;77;26279;-41
2022/07/06 13:02:58;;;;;;;0.57;0.50;;;;;;;;;;1841585;77;26780;-41
2022/07/06 13:05:29;;;;;;;0.40;0.40;;;;;;;;;;1854214;77;26277;-47
2022/07/06 13:07:58;;;;;;;1.05;0.50;;;;;;;;;;1853279;76;26261;-43
2022/07/06 13:10:26;;;;;;;0.30;0.30;;;;;;;;;;1850299;77;26291;-41
2022/07/06 13:12:53;;;;;;;0.45;0.45;;;;;;;;;;1844613;77;26248;-50
2022/07/06 13:15:21;;;;;;;0.40;0.40;;;;;;;;;;1849798;76;26337;-41
2022/07/06 13:17:48;;;;;;;0.40;0.40;;;;;;;;;;1856260;76;27442;-40
2022/07/06 13:20:17;;;;;;;0.78;0.47;;;;;;;;;;1854829;76;26346;-47
2022/07/06 13:22:44;;;;;;;0.40;0.40;;;;;;;;;;1849834;76;26740;-46
2022/07/06 13:25:12;;;;;;;0.85;0.45;;;;;;;;;;1856986;77;26290;-41
2022/07/06 13:27:40;;;;;;;0.50;0.50;;;;;;;;;;1874097;76;26237;-42
2022/07/06 13:30:07;;;;;;;0.50;0.50;;;;;;;;;;1857950;76;26277;-45
2022/07/06 13:32:34;;;;;;;0.40;0.40;;;;;;;;;;1856907;76;26288;-47
2022/07/06 13:35:02;;;;;;;0.55;0.55;;;;;;;;;;1853275;76;26329;-44
2022/07/06 13:37:29;;;;;;;0.40;0.40;;;;;;;;;;1854625;77;26208;-45
2022/07/06 13:39:56;;;;;;;0.40;0.40;;;;;;;;;;1856216;76;26260;-42
2022/07/06 13:42:23;;;;;;;0.50;0.50;;;;;;;;;;1860890;76;26253;-42
2022/07/06 13:44:51;;;;;;;0.40;0.40;;;;;;;;;;1853765;77;26319;-44
2022/07/06 13:47:18;;;;;;;3.40;0.60;;;;;;;;;;1860634;77;26208;-41
2022/07/06 13:49:47;;;;;;;0.50;0.50;;;;;;;;;;1858320;75;26366;-49
2022/07/06 13:52:14;;;;;;;0.80;0.60;;;;;;;;;;1859269;77;26398;-41
2022/07/06 13:54:42;;;;;;;1.45;0.50;;;;;;;;;;1863714;75;26249;-49
2022/07/06 13:57:09;;;;;;;0.50;0.50;;;;;;;;;;1860841;75;26763;-42
2022/07/06 13:59:36;;;;;;;0.40;0.40;;;;;;;;;;1863163;75;26835;-41
2022/07/06 14:02:03;;;;;;;0.55;0.55;;;;;;;;;;1862803;75;26858;-43
2022/07/06 14:04:31;;;;;;;0.50;0.50;;;;;;;;;;1860827;76;26366;-42
2022/07/06 14:06:58;;;;;;;0.75;0.40;;;;;;;;;;1854891;75;26277;-44
2022/07/06 14:09:25;;;;;;;0.98;0.50;;;;;;;;;;1857604;76;26280;-41
2022/07/06 14:11:53;;;;;;;0.90;0.50;;;;;;;;;;1855734;76;26702;-47
2022/07/06 14:14:20;;;;;;;0.62;0.50;;;;;;;;;;1853506;76;26779;-42
2022/07/06 14:16:47;;;;;;;1.32;0.60;;;;;;;;;;1858738;77;26722;-47
2022/07/06 14:19:15;;;;;;;0.60;0.60;;;;;;;;;;1854789;75;26265;-53
2022/07/06 14:21:42;;;;;;;0.80;0.50;;;;;;;;;;1858429;75;26310;-44
2022/07/06 14:24:09;;;;;;;1.25;0.40;;;;;;;;;;1862271;76;26237;-43
2022/07/06 14:26:37;;;;;;;0.70;0.60;;;;;;;;;;1859579;77;26358;-42
2022/07/06 14:29:04;;;;;;;0.85;0.60;;;;;;;;;;1853985;75;26283;-44
2022/07/06 14:31:32;;;;;;;0.40;0.40;;;;;;;;;;1843664;75;26279;-41
2022/07/06 14:33:59;;;;;;;0.65;0.60;;;;;;;;;;1873131;75;26387;-41
2022/07/06 14:36:26;;;;;;;0.50;0.50;;;;;;;;;;1862340;75;26335;-42
2022/07/06 14:38:54;;;;;;;0.40;0.40;;;;;;;;;;1851812;76;26265;-40
2022/07/06 14:41:21;;;;;;;0.40;0.40;;;;;;;;;;1857542;75;26275;-42
2022/07/06 14:43:49;;;;;;;0.42;0.42;;;;;;;;;;1801461;79;26639;-40
2022/07/06 14:46:16;;;;;;;0.82;0.75;;;;;;;;;;1783847;79;26310;-47
2022/07/06 14:48:43;;;;;;;0.55;0.53;;;;;;;;;;1805801;78;26399;-41
2022/07/06 14:51:11;;;;;;;0.35;0.35;;;;;;;;;;1802692;78;26843;-42
2022/07/06 14:53:38;;;;;;;0.40;0.40;;;;;;;;;;1795736;79;26885;-42